Time;durP1;ratioP1;P1;durP2;ratioP2;P2;SDS_P1;SDS_P2;PMS_P1;PMS_P2;Temp;Humidity;BMP_temperature;BMP_pressure;BME280_temperature;BME280_humidity;BME280_pressure;Samples;Min_cycle;Max_cycle;Signal;HPM_P1;HPM_P2
2023/07/08 00:00:17;;;;;;;6.90;6.20;;;20.30;95.40;;;;;;5035141;28;20199;-60
2023/07/08 00:02:43;;;;;;;7.37;6.57;;;20.20;96.40;;;;;;5042923;28;20210;-63
2023/07/08 00:05:15;;;;;;;7.23;6.23;;;20.10;96.80;;;;;;5038065;28;20272;-61
2023/07/08 00:07:41;;;;;;;7.77;5.90;;;20.00;97.70;;;;;;5038469;28;20235;-61
2023/07/08 00:10:18;;;;;;;9.60;6.73;;;20.00;98.40;;;;;;5037762;28;20256;-58
2023/07/08 00:12:47;;;;;;;8.10;6.33;;;20.00;98.40;;;;;;5033573;28;20206;-57
2023/07/08 00:15:13;;;;;;;9.23;7.33;;;20.00;98.60;;;;;;5040284;28;20309;-58
2023/07/08 00:17:39;;;;;;;7.93;7.07;;;20.00;99.30;;;;;;5038087;28;20376;-58
2023/07/08 00:20:58;;;;;;;8.73;7.10;;;20.00;99.20;;;;;;5037044;28;20260;-60
2023/07/08 00:23:24;;;;;;;8.03;6.60;;;19.90;99.40;;;;;;5024358;28;20214;-60
2023/07/08 00:25:50;;;;;;;7.07;6.13;;;19.90;99.30;;;;;;5041089;28;20259;-61
2023/07/08 00:28:19;;;;;;;9.13;5.87;;;19.80;98.70;;;;;;5039865;28;20282;-63
2023/07/08 00:30:45;;;;;;;6.67;6.07;;;19.70;99.30;;;;;;5038611;28;20191;-62
2023/07/08 00:33:10;;;;;;;7.37;6.50;;;19.70;99.30;;;;;;5020764;28;20213;-61
2023/07/08 00:35:38;;;;;;;6.73;5.63;;;19.70;99.10;;;;;;5034877;28;20213;-59
2023/07/08 00:38:26;;;;;;;6.20;5.60;;;19.70;99.20;;;;;;5035765;28;20648;-62
2023/07/08 00:41:06;;;;;;;7.57;5.33;;;19.60;99.90;;;;;;5036230;28;20298;-58
2023/07/08 00:43:39;;;;;;;7.17;5.87;;;19.50;99.80;;;;;;5038792;28;20202;-62
2023/07/08 00:46:27;;;;;;;7.13;6.40;;;19.50;99.90;;;;;;5038032;28;20228;-61
2023/07/08 00:49:18;;;;;;;6.70;6.00;;;19.40;99.90;;;;;;5039648;28;20202;-60
2023/07/08 00:51:43;;;;;;;7.00;6.27;;;19.40;99.90;;;;;;5045710;28;20193;-61
2023/07/08 00:54:14;;;;;;;9.23;6.83;;;19.40;99.90;;;;;;5039198;28;20704;-64
2023/07/08 00:56:59;;;;;;;9.20;6.20;;;19.20;99.90;;;;;;5041052;28;20213;-62
2023/07/08 00:59:27;;;;;;;9.67;6.73;;;19.10;99.90;;;;;;5039966;28;20214;-61
2023/07/08 01:01:55;;;;;;;8.00;6.37;;;19.10;99.90;;;;;;5039908;28;20547;-61
2023/07/08 01:04:50;;;;;;;7.60;6.77;;;19.10;99.90;;;;;;5041646;28;20209;-60
2023/07/08 01:07:21;;;;;;;6.80;6.20;;;19.10;99.90;;;;;;5040576;28;20248;-65
2023/07/08 01:09:49;;;;;;;10.17;6.80;;;19.00;99.90;;;;;;5032978;28;20203;-64
2023/07/08 01:12:25;;;;;;;7.50;6.20;;;19.00;99.90;;;;;;5039090;28;20225;-60
2023/07/08 01:14:53;;;;;;;7.30;6.30;;;19.00;99.90;;;;;;5034106;28;20284;-61
2023/07/08 01:17:21;;;;;;;7.97;6.00;;;18.90;99.90;;;;;;5036976;28;20250;-63
2023/07/08 01:19:48;;;;;;;6.73;5.77;;;18.90;99.90;;;;;;5037212;28;20628;-62
2023/07/08 01:22:14;;;;;;;6.57;5.90;;;18.90;99.90;;;;;;5045370;28;20292;-65
2023/07/08 01:24:44;;;;;;;10.20;6.10;;;18.90;99.90;;;;;;5044061;28;20917;-60
2023/07/08 01:27:13;;;;;;;6.03;5.57;;;18.90;99.90;;;;;;5041122;28;20205;-61
2023/07/08 01:29:38;;;;;;;6.87;6.10;;;18.90;99.90;;;;;;5044955;28;20227;-61
2023/07/08 01:32:05;;;;;;;7.17;6.43;;;18.90;99.90;;;;;;5039412;28;20638;-60
2023/07/08 01:34:32;;;;;;;9.40;6.23;;;18.80;99.90;;;;;;5044942;28;20227;-59
2023/07/08 01:37:00;;;;;;;7.37;5.63;;;18.70;99.90;;;;;;5046814;28;20242;-59
2023/07/08 01:39:28;;;;;;;6.47;5.87;;;18.70;99.90;;;;;;5039005;28;20248;-58
2023/07/08 01:41:55;;;;;;;7.63;6.83;;;18.70;99.90;;;;;;5037050;28;20212;-59
2023/07/08 01:44:29;;;;;;;9.57;6.50;;;18.60;99.90;;;;;;5039827;28;20213;-60
2023/07/08 01:47:20;;;;;;;7.73;6.10;;;18.60;99.90;;;;;;5033123;28;20222;-62
2023/07/08 01:49:47;;;;;;;8.50;6.47;;;18.60;99.90;;;;;;5039814;28;20240;-60
2023/07/08 01:52:16;;;;;;;7.60;6.03;;;18.50;99.90;;;;;;5044748;28;21017;-61
2023/07/08 01:54:42;;;;;;;7.10;5.87;;;18.60;99.90;;;;;;5036840;28;20204;-59
2023/07/08 01:57:08;;;;;;;8.73;6.00;;;18.50;99.90;;;;;;5043152;28;20198;-60
2023/07/08 01:59:33;;;;;;;6.23;5.57;;;18.40;99.90;;;;;;5042410;28;20200;-59
2023/07/08 02:01:58;;;;;;;9.27;6.70;;;18.40;99.90;;;;;;5038807;28;20557;-58
2023/07/08 02:04:26;;;;;;;8.33;5.70;;;18.30;99.90;;;;;;5023502;28;20215;-58
2023/07/08 02:06:57;;;;;;;7.37;5.20;;;18.30;99.90;;;;;;5040992;28;20225;-59
2023/07/08 02:09:24;;;;;;;6.80;6.20;;;18.30;99.90;;;;;;5039269;28;20247;-59
2023/07/08 02:11:50;;;;;;;7.80;5.83;;;18.20;99.90;;;;;;5039085;28;20201;-59
2023/07/08 02:14:16;;;;;;;8.37;5.87;;;18.20;99.90;;;;;;5044852;28;20197;-59
2023/07/08 02:16:41;;;;;;;6.23;5.63;;;18.10;99.90;;;;;;5043824;28;20260;-60
2023/07/08 02:19:07;;;;;;;8.70;7.17;;;18.10;99.90;;;;;;5044826;28;20286;-61
2023/07/08 02:21:33;;;;;;;7.67;6.17;;;18.10;99.90;;;;;;5038088;28;20214;-61
2023/07/08 02:24:00;;;;;;;6.53;5.83;;;18.10;99.90;;;;;;5039044;28;20538;-60
2023/07/08 02:26:26;;;;;;;10.80;6.77;;;18.10;99.90;;;;;;5038913;28;20284;-61
2023/07/08 02:28:51;;;;;;;7.13;6.13;;;18.00;99.90;;;;;;5040389;28;20205;-59
2023/07/08 02:31:17;;;;;;;7.13;6.37;;;18.00;99.90;;;;;;5039935;28;20196;-59
2023/07/08 02:33:43;;;;;;;7.63;6.70;;;18.00;99.90;;;;;;5040178;28;20209;-60
2023/07/08 02:36:08;;;;;;;7.00;6.37;;;18.00;99.90;;;;;;5034550;28;20690;-59
2023/07/08 02:38:33;;;;;;;7.07;6.30;;;17.90;99.90;;;;;;5049828;28;20213;-58
2023/07/08 02:41:00;;;;;;;9.10;6.50;;;17.90;99.90;;;;;;5048615;28;20206;-59
2023/07/08 02:43:25;;;;;;;7.27;6.10;;;17.80;99.90;;;;;;5047719;28;20192;-58
2023/07/08 02:45:52;;;;;;;6.27;5.67;;;17.90;99.90;;;;;;5047262;28;20196;-59
2023/07/08 02:48:18;;;;;;;7.40;6.53;;;18.00;99.90;;;;;;5042456;28;20208;-57
2023/07/08 02:50:44;;;;;;;7.57;6.20;;;17.90;99.90;;;;;;5049719;28;20609;-57
2023/07/08 02:53:09;;;;;;;8.13;6.70;;;17.90;99.90;;;;;;5046581;28;21045;-58
2023/07/08 02:55:35;;;;;;;6.83;5.80;;;17.80;99.90;;;;;;5041240;28;20734;-59
2023/07/08 02:58:00;;;;;;;9.03;6.70;;;17.80;99.90;;;;;;5048280;28;20240;-58
2023/07/08 03:00:26;;;;;;;7.80;5.93;;;17.80;99.90;;;;;;5039656;28;20547;-58
2023/07/08 03:02:51;;;;;;;9.40;6.70;;;17.80;99.90;;;;;;5042936;28;20276;-59
2023/07/08 03:05:17;;;;;;;10.87;6.83;;;17.70;99.90;;;;;;5038415;28;20232;-59
2023/07/08 03:07:42;;;;;;;6.73;5.97;;;17.70;99.90;;;;;;5037880;28;20287;-58
2023/07/08 03:10:08;;;;;;;10.07;6.83;;;17.70;99.90;;;;;;5052150;28;20569;-58
2023/07/08 03:12:34;;;;;;;11.37;7.67;;;17.70;99.90;;;;;;5053733;28;20204;-57
2023/07/08 03:14:59;;;;;;;7.90;6.70;;;17.70;99.90;;;;;;5029543;28;20601;-58
2023/07/08 03:17:25;;;;;;;7.50;6.80;;;17.70;99.90;;;;;;5052863;28;20189;-58
2023/07/08 03:19:51;;;;;;;9.53;6.90;;;17.70;99.90;;;;;;5046471;28;20610;-59
2023/07/08 03:22:16;;;;;;;6.20;5.60;;;17.70;99.90;;;;;;5046751;28;20280;-58
2023/07/08 03:24:45;;;;;;;6.43;5.47;;;17.80;99.90;;;;;;5047985;28;20254;-58
2023/07/08 03:27:12;;;;;;;8.07;5.60;;;17.80;99.90;;;;;;5042072;28;20201;-59
2023/07/08 03:29:38;;;;;;;6.27;5.67;;;17.80;99.90;;;;;;5042698;28;20701;-58
2023/07/08 03:32:04;;;;;;;9.07;5.30;;;17.80;99.90;;;;;;5047809;28;20198;-58
2023/07/08 03:34:29;;;;;;;6.97;5.67;;;17.80;99.90;;;;;;5050342;28;20208;-59
2023/07/08 03:36:55;;;;;;;6.80;5.40;;;17.90;99.90;;;;;;5047701;28;20276;-61
2023/07/08 03:39:25;;;;;;;7.83;5.30;;;17.80;99.90;;;;;;5038969;28;20213;-59
2023/07/08 03:41:51;;;;;;;7.33;4.83;;;17.80;99.90;;;;;;5040927;28;20236;-59
2023/07/08 03:44:17;;;;;;;5.47;4.97;;;17.80;99.90;;;;;;5043373;28;20286;-58
2023/07/08 03:46:50;;;;;;;6.43;4.73;;;17.80;99.90;;;;;;5044786;28;20197;-59
2023/07/08 03:49:23;;;;;;;6.20;5.37;;;17.90;99.90;;;;;;5032995;28;20734;-59
2023/07/08 03:51:51;;;;;;;5.93;5.30;;;17.90;99.90;;;;;;5045922;28;20643;-58
2023/07/08 03:54:18;;;;;;;5.43;4.93;;;18.10;99.90;;;;;;5049754;28;20219;-58
2023/07/08 03:56:44;;;;;;;9.37;5.07;;;18.00;99.90;;;;;;5033869;28;20678;-58
2023/07/08 03:59:10;;;;;;;5.87;4.63;;;18.00;99.90;;;;;;5051568;28;20216;-58
2023/07/08 04:01:38;;;;;;;7.47;5.00;;;18.00;99.90;;;;;;5036731;28;20232;-58
2023/07/08 04:04:04;;;;;;;7.87;5.40;;;18.00;99.90;;;;;;5037033;28;20800;-59
2023/07/08 04:06:29;;;;;;;6.47;4.90;;;18.00;99.90;;;;;;5033356;28;20216;-59
2023/07/08 04:08:55;;;;;;;4.97;4.57;;;18.00;99.90;;;;;;5032933;28;20551;-59
2023/07/08 04:11:22;;;;;;;4.60;4.20;;;17.90;99.90;;;;;;5036811;28;20738;-59
2023/07/08 04:13:49;;;;;;;4.87;4.47;;;17.80;99.90;;;;;;5035403;28;20594;-59
2023/07/08 04:16:21;;;;;;;5.63;4.50;;;17.80;99.90;;;;;;5043824;28;20208;-59
2023/07/08 04:18:50;;;;;;;5.23;4.83;;;17.90;99.90;;;;;;5040720;28;20215;-59
2023/07/08 04:21:17;;;;;;;7.83;4.43;;;17.90;99.90;;;;;;5037044;28;20283;-60
2023/07/08 04:23:43;;;;;;;5.80;5.20;;;17.90;99.90;;;;;;5013961;28;20200;-59
2023/07/08 04:26:09;;;;;;;7.40;4.37;;;18.00;99.90;;;;;;5034076;28;20260;-59
2023/07/08 04:28:35;;;;;;;5.60;4.73;;;18.00;99.90;;;;;;5033720;28;20209;-60
2023/07/08 04:31:01;;;;;;;5.13;4.63;;;17.90;99.90;;;;;;5026397;28;20204;-59
2023/07/08 04:33:27;;;;;;;4.90;4.50;;;18.00;99.90;;;;;;5038055;28;20564;-59
2023/07/08 04:35:54;;;;;;;6.83;4.60;;;18.00;99.90;;;;;;5044225;28;20204;-60
2023/07/08 04:38:21;;;;;;;6.03;4.57;;;18.00;99.90;;;;;;5035837;28;20250;-59
2023/07/08 04:40:48;;;;;;;4.57;4.17;;;18.00;99.90;;;;;;5037402;28;20208;-58
2023/07/08 04:43:14;;;;;;;6.13;4.47;;;18.00;99.90;;;;;;5030062;28;20210;-59
2023/07/08 04:45:42;;;;;;;4.73;4.30;;;18.00;99.90;;;;;;5043502;28;20204;-59
2023/07/08 04:48:12;;;;;;;5.33;4.80;;;18.00;99.90;;;;;;5043196;28;20499;-59
2023/07/08 04:50:43;;;;;;;4.10;3.80;;;18.10;99.90;;;;;;5038720;28;20615;-58
2023/07/08 04:53:09;;;;;;;3.83;3.53;;;18.10;99.90;;;;;;5039455;28;21552;-58
2023/07/08 04:55:37;;;;;;;5.30;4.70;;;18.10;99.90;;;;;;5044757;28;20852;-59
2023/07/08 04:58:03;;;;;;;4.80;4.30;;;18.10;99.90;;;;;;5041163;28;20719;-59
2023/07/08 05:00:29;;;;;;;5.73;4.77;;;18.30;99.90;;;;;;5041025;28;20204;-59
2023/07/08 05:02:54;;;;;;;4.57;4.17;;;18.30;99.90;;;;;;5048635;28;20214;-59
2023/07/08 05:05:21;;;;;;;4.10;3.80;;;18.40;99.90;;;;;;5037873;28;20259;-59
2023/07/08 05:07:46;;;;;;;4.43;4.03;;;18.40;99.90;;;;;;5041850;28;20260;-58
2023/07/08 05:10:15;;;;;;;6.10;5.50;;;18.50;99.90;;;;;;5045427;28;20203;-59
2023/07/08 05:12:41;;;;;;;4.60;4.20;;;18.50;99.90;;;;;;5042477;28;20226;-59
2023/07/08 05:15:07;;;;;;;7.77;4.87;;;18.60;99.90;;;;;;5042331;28;20690;-58
2023/07/08 05:17:32;;;;;;;5.07;4.63;;;18.80;99.90;;;;;;5041854;28;20194;-59
2023/07/08 05:20:00;;;;;;;4.63;3.90;;;18.90;99.90;;;;;;5038258;28;20679;-59
2023/07/08 05:22:27;;;;;;;11.33;4.77;;;18.90;99.90;;;;;;5043222;28;20281;-60
2023/07/08 05:24:55;;;;;;;6.07;4.47;;;19.00;99.90;;;;;;5043184;28;20225;-58
2023/07/08 05:27:22;;;;;;;5.67;3.87;;;19.00;99.90;;;;;;5037730;28;20237;-59
2023/07/08 05:29:47;;;;;;;4.70;3.93;;;19.10;99.90;;;;;;5034135;28;20194;-58
2023/07/08 05:32:13;;;;;;;4.73;3.70;;;19.10;99.90;;;;;;5051074;28;20432;-58
2023/07/08 05:34:38;;;;;;;5.40;3.97;;;19.20;99.90;;;;;;5036235;28;20275;-58
2023/07/08 05:37:04;;;;;;;3.67;3.37;;;19.30;99.90;;;;;;5033553;28;20953;-58
2023/07/08 05:39:31;;;;;;;3.90;3.60;;;19.40;99.90;;;;;;5030942;28;20212;-58
2023/07/08 05:41:56;;;;;;;6.17;4.30;;;19.50;99.90;;;;;;5038733;28;20220;-58
2023/07/08 05:44:22;;;;;;;4.30;3.90;;;19.50;99.90;;;;;;5040311;28;20677;-59
2023/07/08 05:46:48;;;;;;;5.27;4.13;;;19.60;99.90;;;;;;5034003;28;20244;-63
2023/07/08 05:49:14;;;;;;;4.90;3.67;;;19.70;99.90;;;;;;5030166;28;20212;-63
2023/07/08 05:51:39;;;;;;;3.90;3.47;;;19.70;99.90;;;;;;5034633;28;20202;-59
2023/07/08 05:54:05;;;;;;;4.17;3.77;;;19.80;99.90;;;;;;5045309;28;20728;-59
2023/07/08 05:56:30;;;;;;;4.63;3.57;;;19.90;99.90;;;;;;5034394;28;20202;-58
2023/07/08 05:58:56;;;;;;;6.10;3.33;;;20.00;99.90;;;;;;5031652;28;20219;-57
2023/07/08 06:01:22;;;;;;;5.20;3.90;;;20.10;99.90;;;;;;5033053;28;20244;-57
2023/07/08 06:03:47;;;;;;;4.00;3.60;;;20.20;99.90;;;;;;5038024;28;20277;-59
2023/07/08 06:06:13;;;;;;;4.07;3.67;;;20.30;99.80;;;;;;5035307;28;20219;-58
2023/07/08 06:08:39;;;;;;;8.00;3.60;;;20.50;99.80;;;;;;5038465;28;20206;-58
2023/07/08 06:11:04;;;;;;;4.63;3.47;;;20.60;99.40;;;;;;5040656;28;20198;-58
2023/07/08 06:13:30;;;;;;;4.00;3.33;;;20.80;99.10;;;;;;5031578;28;20199;-58
2023/07/08 06:15:56;;;;;;;4.33;3.40;;;20.90;99.10;;;;;;5032690;28;20555;-59
2023/07/08 06:18:21;;;;;;;5.53;3.77;;;21.00;98.70;;;;;;5033597;28;20268;-59
2023/07/08 06:20:55;;;;;;;3.77;3.47;;;21.10;98.70;;;;;;5043366;28;20887;-58
2023/07/08 06:23:20;;;;;;;4.40;3.87;;;21.20;98.00;;;;;;5031086;28;20207;-58
2023/07/08 06:25:46;;;;;;;4.33;3.10;;;21.20;97.60;;;;;;5048812;28;20203;-59
2023/07/08 06:28:11;;;;;;;3.27;3.07;;;21.40;96.60;;;;;;5032663;28;20198;-58
2023/07/08 06:30:37;;;;;;;3.53;3.22;;;21.60;96.30;;;;;;5038954;28;21070;-59
2023/07/08 06:33:03;;;;;;;4.35;3.90;;;21.60;96.60;;;;;;5039741;28;20212;-59
2023/07/08 06:35:29;;;;;;;3.88;3.58;;;21.60;96.80;;;;;;5035198;28;20203;-58
2023/07/08 06:37:54;;;;;;;3.40;3.13;;;21.60;97.00;;;;;;5052080;28;20206;-57
2023/07/08 06:40:20;;;;;;;5.68;3.90;;;21.60;96.80;;;;;;5052826;28;20198;-58
2023/07/08 06:42:46;;;;;;;3.47;3.10;;;21.60;96.40;;;;;;5045001;28;20568;-58
2023/07/08 06:45:11;;;;;;;3.83;3.53;;;21.80;95.70;;;;;;5052077;28;20186;-58
2023/07/08 06:47:37;;;;;;;3.57;3.27;;;21.80;95.70;;;;;;5051761;28;20198;-58
2023/07/08 06:50:02;;;;;;;7.72;3.55;;;22.00;95.10;;;;;;5047847;28;20333;-60
2023/07/08 06:52:33;;;;;;;5.18;3.22;;;22.20;95.00;;;;;;5035759;28;20198;-60
2023/07/08 06:55:04;;;;;;;6.03;3.33;;;22.30;94.90;;;;;;5034940;28;20206;-60
2023/07/08 06:57:29;;;;;;;5.82;3.53;;;22.30;94.70;;;;;;5035120;28;20286;-59
2023/07/08 06:59:55;;;;;;;4.32;3.60;;;22.50;94.50;;;;;;5045240;28;20355;-59
2023/07/08 07:02:20;;;;;;;3.45;3.15;;;22.60;94.30;;;;;;5038716;28;20206;-59
2023/07/08 07:04:46;;;;;;;5.70;3.85;;;22.70;94.10;;;;;;5042500;28;20617;-59
2023/07/08 07:07:12;;;;;;;6.85;3.33;;;22.70;94.40;;;;;;5040701;28;20222;-59
2023/07/08 07:09:37;;;;;;;7.40;3.60;;;22.80;94.30;;;;;;5044326;28;20294;-59
2023/07/08 07:12:05;;;;;;;4.20;3.33;;;22.90;93.90;;;;;;5037923;28;21062;-60
2023/07/08 07:14:30;;;;;;;8.38;3.78;;;23.00;93.30;;;;;;5042000;28;20249;-59
2023/07/08 07:16:56;;;;;;;3.47;3.28;;;23.10;92.50;;;;;;5029031;28;20742;-59
2023/07/08 07:19:21;;;;;;;4.32;3.13;;;23.20;93.30;;;;;;5038954;28;20218;-59
2023/07/08 07:21:47;;;;;;;5.45;3.55;;;23.20;93.20;;;;;;5030058;28;20560;-59
2023/07/08 07:24:12;;;;;;;4.15;3.78;;;23.20;92.90;;;;;;5039627;28;20349;-59
2023/07/08 07:26:38;;;;;;;4.57;3.65;;;23.20;92.90;;;;;;5042330;28;20211;-59
2023/07/08 07:29:04;;;;;;;4.35;3.25;;;23.40;92.90;;;;;;5038682;28;20214;-60
2023/07/08 07:31:30;;;;;;;4.20;3.30;;;23.40;91.90;;;;;;5035376;28;20279;-59
2023/07/08 07:33:56;;;;;;;4.60;3.53;;;23.50;91.00;;;;;;5042235;28;20227;-59
2023/07/08 07:36:22;;;;;;;7.32;3.53;;;23.70;91.00;;;;;;5036569;28;20302;-60
2023/07/08 07:38:47;;;;;;;6.40;3.40;;;23.70;91.20;;;;;;5036465;28;20434;-60
2023/07/08 07:41:13;;;;;;;3.58;3.28;;;23.60;91.90;;;;;;5044673;28;20211;-59
2023/07/08 07:43:38;;;;;;;3.65;3.30;;;23.70;91.20;;;;;;5035446;28;20205;-60
2023/07/08 07:46:05;;;;;;;4.18;3.80;;;23.80;91.00;;;;;;5036446;28;20841;-60
2023/07/08 07:48:31;;;;;;;3.47;3.17;;;24.00;91.10;;;;;;5037099;28;20203;-59
2023/07/08 07:50:57;;;;;;;5.05;3.92;;;24.00;90.30;;;;;;5038050;28;20204;-60
2023/07/08 07:53:22;;;;;;;6.22;3.35;;;24.10;90.40;;;;;;5038745;28;20768;-58
2023/07/08 07:55:55;;;;;;;5.45;3.78;;;24.20;90.30;;;;;;5037086;28;20566;-58
2023/07/08 07:58:20;;;;;;;5.65;3.38;;;24.20;90.10;;;;;;5035757;28;20270;-61
2023/07/08 08:00:46;;;;;;;3.80;3.50;;;24.20;91.00;;;;;;5042349;28;20192;-57
2023/07/08 08:03:12;;;;;;;4.25;3.65;;;24.20;90.80;;;;;;5039651;28;20223;-58
2023/07/08 08:05:37;;;;;;;5.03;3.28;;;24.30;90.90;;;;;;5034214;28;20761;-59
2023/07/08 08:08:03;;;;;;;6.90;3.85;;;24.30;90.80;;;;;;5035464;28;20270;-57
2023/07/08 08:10:29;;;;;;;3.47;3.17;;;24.40;90.80;;;;;;5038366;28;20201;-57
2023/07/08 08:12:55;;;;;;;5.40;3.63;;;24.40;90.30;;;;;;5035005;28;20209;-58
2023/07/08 08:15:22;;;;;;;4.65;3.38;;;24.40;89.80;;;;;;5034840;28;20228;-57
2023/07/08 08:17:49;;;;;;;4.80;3.67;;;24.60;90.50;;;;;;5032548;28;20814;-60
2023/07/08 08:20:14;;;;;;;3.65;3.35;;;24.80;90.40;;;;;;5038947;28;20209;-61
2023/07/08 08:22:40;;;;;;;3.67;3.38;;;24.60;90.90;;;;;;5034503;28;20195;-59
2023/07/08 08:25:06;;;;;;;4.63;4.15;;;24.70;90.20;;;;;;5035577;28;21067;-58
2023/07/08 08:27:32;;;;;;;4.90;3.38;;;24.70;89.60;;;;;;5040433;28;20240;-58
2023/07/08 08:29:57;;;;;;;3.33;3.13;;;24.80;88.70;;;;;;5037220;28;20209;-58
2023/07/08 08:32:23;;;;;;;6.65;3.13;;;25.00;87.70;;;;;;5040410;28;20743;-58
2023/07/08 08:34:48;;;;;;;10.18;3.22;;;25.20;88.40;;;;;;5039575;28;20213;-59
2023/07/08 08:37:14;;;;;;;5.45;3.20;;;25.10;86.50;;;;;;5035786;28;20969;-60
2023/07/08 08:39:39;;;;;;;5.53;3.10;;;25.20;87.00;;;;;;5031883;28;20228;-59
2023/07/08 08:42:27;;;;;;;3.65;3.35;;;25.20;88.00;;;;;;5039083;28;20679;-59
2023/07/08 08:44:57;;;;;;;4.45;3.08;;;25.10;86.50;;;;;;5036779;28;20241;-62
2023/07/08 08:47:30;;;;;;;3.90;3.25;;;25.10;82.80;;;;;;5034683;28;20661;-62
2023/07/08 08:50:20;;;;;;;3.53;2.92;;;25.20;85.90;;;;;;5039900;28;20292;-62
2023/07/08 08:52:46;;;;;;;5.75;2.97;;;25.20;85.30;;;;;;5035686;28;20182;-62
2023/07/08 08:55:13;;;;;;;7.15;3.45;;;25.40;86.50;;;;;;5043478;28;20256;-61
2023/07/08 08:58:17;;;;;;;4.95;3.25;;;25.40;86.10;;;;;;5024286;28;20198;-66
2023/07/08 09:00:56;;;;;;;2.95;2.72;;;25.60;83.80;;;;;;5031907;28;20199;-66
2023/07/08 09:03:44;;;;;;;5.75;3.10;;;25.40;85.90;;;;;;5039616;28;20216;-67
2023/07/08 09:06:22;;;;;;;2.97;2.78;;;25.60;82.60;;;;;;5043526;28;20291;-68
2023/07/08 09:08:49;;;;;;;2.85;2.65;;;25.60;85.50;;;;;;5034774;28;20238;-67
2023/07/08 09:11:44;;;;;;;2.60;2.40;;;25.60;81.00;;;;;;5036466;28;20741;-67
2023/07/08 09:14:23;;;;;;;2.97;2.78;;;25.80;83.20;;;;;;5031727;28;20212;-66
2023/07/08 09:17:15;;;;;;;2.78;2.45;;;25.80;82.60;;;;;;5033111;28;20202;-66
2023/07/08 09:20:20;;;;;;;2.95;2.58;;;25.60;78.50;;;;;;5035137;28;20641;-66
2023/07/08 09:23:08;;;;;;;29.35;9.73;;;25.40;83.20;;;;;;5020386;28;20202;-67
2023/07/08 09:25:35;;;;;;;6.03;3.40;;;25.40;99.90;;;;;;5032381;28;20226;-70
2023/07/08 09:28:00;;;;;;;5.97;4.18;;;24.10;99.90;;;;;;5037817;28;20210;-75
2023/07/08 09:30:28;;;;;;;3.85;3.55;;;23.30;99.90;;;;;;5037909;28;20230;-75
2023/07/08 09:32:54;;;;;;;3.33;3.03;;;22.30;99.90;;;;;;5044716;28;20195;-71
2023/07/08 09:35:24;;;;;;;21.08;4.22;;;21.90;99.90;;;;;;5029855;28;20697;-67
2023/07/08 09:37:51;;;;;;;6.57;4.00;;;21.20;99.90;;;;;;5041054;28;20246;-69
2023/07/08 09:40:22;;;;;;;4.43;3.38;;;20.90;99.90;;;;;;5047002;28;20297;-67
2023/07/08 09:42:55;;;;;;;4.45;3.08;;;20.50;99.90;;;;;;5036715;28;20230;-68
2023/07/08 09:45:24;;;;;;;3.85;3.50;;;20.70;99.90;;;;;;5040100;28;20522;-74
2023/07/08 09:47:54;;;;;;;2.90;2.70;;;20.70;99.90;;;;;;5032331;28;20692;-69
2023/07/08 09:50:29;;;;;;;3.70;2.60;;;20.40;99.90;;;;;;5034767;28;20207;-68
2023/07/08 09:53:00;;;;;;;3.47;2.90;;;21.30;93.70;;;;;;5042954;28;20754;-66
2023/07/08 09:55:28;;;;;;;3.35;3.05;;;21.30;99.90;;;;;;5045238;28;20214;-68
2023/07/08 09:57:55;;;;;;;5.32;2.88;;;21.10;99.90;;;;;;5038087;28;20297;-69
2023/07/08 10:00:39;;;;;;;3.65;2.95;;;20.70;99.90;;;;;;5041946;28;20418;-67
2023/07/08 10:03:32;;;;;;;3.93;2.57;;;21.10;96.50;;;;;;5034022;28;20515;-76
2023/07/08 10:06:02;;;;;;;3.92;2.78;;;22.20;91.00;;;;;;5038534;28;20222;-72
2023/07/08 10:08:38;;;;;;;2.72;2.53;;;23.50;82.70;;;;;;5031822;28;21195;-68
2023/07/08 10:11:27;;;;;;;3.15;2.63;;;24.20;77.50;;;;;;5041334;28;20222;-68
2023/07/08 10:13:56;;;;;;;3.60;2.88;;;23.60;93.00;;;;;;5040474;28;20195;-68
2023/07/08 10:16:38;;;;;;;2.70;2.42;;;23.20;82.00;;;;;;5042191;28;20201;-68
2023/07/08 10:19:17;;;;;;;2.58;2.33;;;23.00;88.50;;;;;;5038773;28;20221;-67
2023/07/08 10:22:27;;;;;;;3.47;2.60;;;24.20;79.60;;;;;;5042986;28;20196;-67
2023/07/08 10:25:11;;;;;;;5.82;2.92;;;24.40;73.10;;;;;;5036086;28;20242;-70
2023/07/08 10:27:47;;;;;;;2.53;2.33;;;24.50;87.40;;;;;;5037243;28;20212;-70
2023/07/08 10:30:25;;;;;;;3.80;3.08;;;24.10;82.70;;;;;;5027809;28;20257;-69
2023/07/08 10:33:20;;;;;;;4.00;2.90;;;24.00;91.00;;;;;;5040744;28;20221;-69
2023/07/08 10:36:26;;;;;;;3.05;2.85;;;23.70;90.40;;;;;;5029117;28;20212;-69
2023/07/08 10:38:54;;;;;;;3.85;2.55;;;24.10;75.90;;;;;;5028290;28;20307;-68
2023/07/08 10:41:40;;;;;;;3.33;2.50;;;24.60;83.50;;;;;;5044127;28;20665;-69
2023/07/08 10:44:50;;;;;;;2.50;2.30;;;25.10;70.10;;;;;;5035609;28;20948;-70
2023/07/08 10:47:37;;;;;;;3.78;2.63;;;25.50;74.40;;;;;;5003577;28;20690;-69
2023/07/08 10:50:28;;;;;;;3.83;2.75;;;25.20;79.70;;;;;;5040620;28;20211;-71
2023/07/08 10:53:17;;;;;;;3.17;2.35;;;25.80;66.00;;;;;;5018762;28;20190;-69
2023/07/08 10:55:57;;;;;;;4.25;2.25;;;26.60;61.60;;;;;;5044063;28;20228;-71
2023/07/08 10:58:34;;;;;;;2.72;2.53;;;26.20;73.70;;;;;;5044630;28;20233;-71
2023/07/08 11:01:24;;;;;;;6.47;4.07;;;25.80;67.50;;;;;;5042393;28;20240;-72
2023/07/08 11:04:01;;;;;;;3.15;2.30;;;25.60;79.30;;;;;;5041152;28;20203;-71
2023/07/08 11:06:49;;;;;;;2.60;2.40;;;25.60;74.30;;;;;;5043104;28;20751;-72
2023/07/08 11:09:26;;;;;;;3.47;2.30;;;26.30;73.80;;;;;;5039441;28;20686;-72
2023/07/08 11:11:56;;;;;;;4.25;2.78;;;25.80;77.00;;;;;;5038762;28;20665;-71
2023/07/08 11:14:47;;;;;;;3.35;2.83;;;26.10;76.40;;;;;;5040066;28;20278;-72
2023/07/08 11:17:26;;;;;;;2.80;2.55;;;26.40;61.90;;;;;;5038754;28;20207;-70
2023/07/08 11:20:03;;;;;;;3.13;2.92;;;26.80;73.30;;;;;;5024121;28;20248;-70
2023/07/08 11:22:34;;;;;;;2.40;2.20;;;27.30;67.90;;;;;;5043877;28;20198;-68
2023/07/08 11:25:02;;;;;;;2.75;2.55;;;27.20;72.30;;;;;;5017973;28;20807;-68
2023/07/08 11:27:37;;;;;;;2.83;2.63;;;27.40;68.10;;;;;;5046123;28;20197;-71
2023/07/08 11:30:11;;;;;;;3.40;2.25;;;27.10;65.20;;;;;;5045318;28;20201;-70
2023/07/08 11:32:39;;;;;;;3.78;2.33;;;27.00;65.10;;;;;;5038959;28;20197;-71
2023/07/08 11:35:15;;;;;;;3.65;2.83;;;27.60;61.70;;;;;;5041576;28;20261;-71
2023/07/08 11:37:42;;;;;;;3.78;2.47;;;28.00;58.80;;;;;;5043454;28;20199;-69
2023/07/08 11:40:25;;;;;;;3.25;2.65;;;28.00;62.40;;;;;;5047265;28;20206;-70
2023/07/08 11:43:00;;;;;;;3.55;2.67;;;27.90;63.80;;;;;;5045388;28;20201;-71
2023/07/08 11:45:39;;;;;;;5.68;2.50;;;28.00;57.60;;;;;;5045284;28;20234;-69
2023/07/08 11:48:18;;;;;;;3.15;2.20;;;29.40;54.50;;;;;;5042250;28;20201;-71
2023/07/08 11:50:47;;;;;;;2.88;2.60;;;29.00;65.00;;;;;;5041570;28;20785;-70
2023/07/08 11:53:31;;;;;;;2.75;2.55;;;29.20;56.00;;;;;;5046639;28;20501;-68
2023/07/08 11:56:18;;;;;;;2.97;2.78;;;29.50;52.90;;;;;;5044727;28;20564;-68
2023/07/08 11:58:50;;;;;;;2.50;2.30;;;28.70;62.30;;;;;;5039357;28;20696;-71
2023/07/08 12:01:28;;;;;;;2.85;2.65;;;28.30;63.80;;;;;;5044978;28;20379;-69
2023/07/08 12:04:16;;;;;;;4.93;2.75;;;28.00;65.70;;;;;;5036815;28;20218;-68
2023/07/08 12:06:47;;;;;;;2.95;2.75;;;27.70;66.30;;;;;;5036341;28;20272;-69
2023/07/08 12:09:24;;;;;;;2.88;2.63;;;28.30;60.40;;;;;;5032895;28;20203;-69
2023/07/08 12:11:59;;;;;;;2.47;2.33;;;28.30;64.20;;;;;;5040431;28;20198;-71
2023/07/08 12:14:28;;;;;;;4.93;2.25;;;28.30;61.00;;;;;;5036063;28;20213;-75
2023/07/08 12:16:55;;;;;;;2.75;2.55;;;28.40;64.40;;;;;;5023160;28;20203;-75
2023/07/08 12:19:25;;;;;;;3.90;2.90;;;28.50;54.20;;;;;;5046976;28;20676;-74
2023/07/08 12:21:52;;;;;;;3.15;2.95;;;29.40;54.90;;;;;;5041035;28;20221;-74
2023/07/08 12:24:26;;;;;;;3.35;2.60;;;28.90;60.40;;;;;;5023398;28;20237;-72
2023/07/08 12:26:52;;;;;;;5.90;2.40;;;28.50;62.60;;;;;;5042900;28;20862;-74
2023/07/08 12:29:18;;;;;;;2.53;2.33;;;29.30;54.20;;;;;;5041593;28;20203;-75
2023/07/08 12:31:46;;;;;;;3.65;2.80;;;28.80;62.00;;;;;;5038897;28;20201;-75
2023/07/08 12:34:18;;;;;;;2.53;2.33;;;28.30;60.10;;;;;;5042008;28;20198;-75
2023/07/08 12:36:45;;;;;;;2.13;2.03;;;28.30;62.80;;;;;;5042985;28;20198;-74
2023/07/08 12:39:16;;;;;;;2.85;2.58;;;28.50;58.40;;;;;;5043060;28;20217;-73
2023/07/08 12:41:44;;;;;;;2.28;2.08;;;28.90;53.00;;;;;;5042610;28;20240;-74
2023/07/08 12:44:37;;;;;;;3.15;2.45;;;28.70;62.00;;;;;;5036657;28;20321;-73
2023/07/08 12:47:03;;;;;;;2.63;2.42;;;29.10;56.90;;;;;;5039845;28;20203;-74
2023/07/08 12:49:29;;;;;;;2.40;2.30;;;29.20;58.10;;;;;;5047467;28;20917;-74
2023/07/08 12:51:55;;;;;;;3.88;2.90;;;29.70;50.50;;;;;;5037015;28;20799;-73
2023/07/08 12:54:22;;;;;;;3.45;2.83;;;31.80;44.20;;;;;;5045102;28;20199;-74
2023/07/08 12:56:55;;;;;;;3.88;3.00;;;32.00;48.20;;;;;;5035383;28;21552;-74
2023/07/08 12:59:23;;;;;;;3.08;2.83;;;32.10;48.00;;;;;;5036249;28;20580;-73
2023/07/08 13:01:51;;;;;;;2.40;2.20;;;32.10;47.10;;;;;;5045560;28;20207;-74